Time;durP1;ratioP1;P1;durP2;ratioP2;P2;SDS_P1;SDS_P2;PMS_P1;PMS_P2;Temp;Humidity;BMP_temperature;BMP_pressure;BME280_temperature;BME280_humidity;BME280_pressure;Samples;Min_cycle;Max_cycle;Signal;HPM_P1;HPM_P2
2023/01/20 00:02:07;;;;;;;19.47;17.60;;;;;;;;;;5076753;28;20204;-91
2023/01/20 00:04:35;;;;;;;17.70;15.83;;;;;;;;;;5093976;28;20211;-90
2023/01/20 00:07:04;;;;;;;13.07;11.73;;;;;;;;;;5094317;28;20209;-90
2023/01/20 00:09:32;;;;;;;19.23;17.27;;;;;;;;;;5076359;28;20228;-90
2023/01/20 00:12:00;;;;;;;22.13;20.03;;;;;;;;;;5094394;28;20197;-91
2023/01/20 00:14:29;;;;;;;25.07;14.83;;;;;;;;;;5076159;28;20232;-91
2023/01/20 00:16:59;;;;;;;15.70;13.67;;;;;;;;;;5076181;28;20193;-91
2023/01/20 00:19:27;;;;;;;21.13;19.23;;;;;;;;;;5076352;28;20204;-90
2023/01/20 00:21:55;;;;;;;18.13;16.13;;;;;;;;;;5076070;28;20258;-90
2023/01/20 00:24:24;;;;;;;20.07;17.70;;;;;;;;;;5076032;28;20247;-91
2023/01/20 00:26:52;;;;;;;22.53;20.20;;;;;;;;;;5076039;28;20225;-90
2023/01/20 00:29:20;;;;;;;29.20;25.73;;;;;;;;;;5075804;28;20219;-91
2023/01/20 00:31:49;;;;;;;25.13;22.50;;;;;;;;;;5076180;28;20215;-91
2023/01/20 00:34:19;;;;;;;31.27;27.97;;;;;;;;;;5075930;28;20210;-90
2023/01/20 00:36:47;;;;;;;24.57;21.53;;;;;;;;;;5093748;28;20201;-91
2023/01/20 00:39:15;;;;;;;29.27;26.13;;;;;;;;;;5076176;28;20246;-91
2023/01/20 00:41:43;;;;;;;25.00;21.73;;;;;;;;;;5075830;28;20227;-91
2023/01/20 00:44:12;;;;;;;30.83;26.40;;;;;;;;;;5093667;28;20198;-90
2023/01/20 00:46:40;;;;;;;31.97;28.57;;;;;;;;;;5076034;28;20243;-91
2023/01/20 00:49:10;;;;;;;28.30;21.20;;;;;;;;;;5075776;28;20211;-90
2023/01/20 00:51:39;;;;;;;19.40;15.80;;;;;;;;;;5093906;28;20203;-91
2023/01/20 00:54:08;;;;;;;31.00;26.47;;;;;;;;;;5075991;28;20210;-90
2023/01/20 00:56:36;;;;;;;27.57;23.13;;;;;;;;;;5075751;28;20205;-91
2023/01/20 00:59:04;;;;;;;26.50;21.73;;;;;;;;;;5093634;28;20204;-89
2023/01/20 01:01:33;;;;;;;24.93;21.57;;;;;;;;;;5075961;28;20205;-90
2023/01/20 01:04:01;;;;;;;27.70;24.70;;;;;;;;;;5075634;28;20241;-90
2023/01/20 01:06:30;;;;;;;26.23;23.43;;;;;;;;;;5075501;28;20275;-91
2023/01/20 01:08:59;;;;;;;25.80;22.10;;;;;;;;;;5075579;28;20251;-91
2023/01/20 01:11:28;;;;;;;27.47;23.80;;;;;;;;;;5075780;28;20273;-90
2023/01/20 01:13:57;;;;;;;19.47;15.67;;;;;;;;;;5075774;28;20209;-87
2023/01/20 01:16:25;;;;;;;19.53;14.50;;;;;;;;;;5075778;28;20232;-90
2023/01/20 01:18:54;;;;;;;23.23;18.23;;;;;;;;;;5075833;28;20196;-90
2023/01/20 01:21:22;;;;;;;22.73;17.17;;;;;;;;;;5075344;28;20201;-90
2023/01/20 01:23:52;;;;;;;16.57;13.57;;;;;;;;;;5075826;28;20194;-90
2023/01/20 01:26:22;;;;;;;21.73;17.37;;;;;;;;;;5075400;28;20271;-91
2023/01/20 01:28:50;;;;;;;24.80;18.13;;;;;;;;;;5075393;28;20227;-91
2023/01/20 01:31:20;;;;;;;17.20;13.30;;;;;;;;;;5093468;28;20277;-91
2023/01/20 01:33:49;;;;;;;13.70;10.10;;;;;;;;;;5075420;28;20202;-91
2023/01/20 01:36:18;;;;;;;17.67;14.47;;;;;;;;;;5093691;28;20200;-91
2023/01/20 01:38:46;;;;;;;22.20;15.20;;;;;;;;;;5078834;28;20204;-90
2023/01/20 01:41:27;;;;;;;14.33;11.83;;;;;;;;;;5078940;28;20225;-90
2023/01/20 01:44:00;;;;;;;14.40;11.13;;;;;;;;;;5096908;28;20190;-89
2023/01/20 01:46:29;;;;;;;14.40;12.20;;;;;;;;;;5078948;28;20201;-90
2023/01/20 01:48:57;;;;;;;11.03;7.77;;;;;;;;;;5078757;28;20202;-91
2023/01/20 01:51:27;;;;;;;11.07;8.50;;;;;;;;;;5078981;28;20220;-91
2023/01/20 01:53:57;;;;;;;8.30;7.50;;;;;;;;;;5096511;28;20222;-90
2023/01/20 01:56:26;;;;;;;12.00;9.97;;;;;;;;;;5078626;28;20202;-91
2023/01/20 01:58:57;;;;;;;12.03;9.97;;;;;;;;;;5078447;28;20203;-89
2023/01/20 02:01:26;;;;;;;11.23;9.80;;;;;;;;;;5078547;28;20248;-89
2023/01/20 02:03:56;;;;;;;11.20;9.03;;;;;;;;;;5078671;28;20293;-91
2023/01/20 02:06:26;;;;;;;11.83;9.83;;;;;;;;;;5078265;28;20218;-91
2023/01/20 02:08:54;;;;;;;11.37;10.00;;;;;;;;;;5096267;28;20199;-90
2023/01/20 02:11:23;;;;;;;12.30;9.33;;;;;;;;;;5096103;28;20299;-90
2023/01/20 02:13:51;;;;;;;11.13;8.20;;;;;;;;;;5078243;28;20201;-90
2023/01/20 02:16:29;;;;;;;5.73;3.73;;;;;;;;;;5078159;28;20268;-91
2023/01/20 02:19:03;;;;;;;4.67;3.57;;;;;;;;;;5078097;28;20278;-91
2023/01/20 02:22:05;;;;;;;9.93;7.43;;;;;;;;;;5078081;28;20199;-90
2023/01/20 02:24:51;;;;;;;8.80;7.60;;;;;;;;;;5078382;28;20200;-90
2023/01/20 02:27:28;;;;;;;8.53;7.63;;;;;;;;;;5078092;28;20197;-91
2023/01/20 02:30:10;;;;;;;12.67;10.53;;;;;;;;;;5078392;28;20289;-91
2023/01/20 02:32:44;;;;;;;8.63;7.13;;;;;;;;;;5095829;28;20251;-90
2023/01/20 02:35:13;;;;;;;12.37;8.67;;;;;;;;;;5078360;28;20243;-91
2023/01/20 02:37:47;;;;;;;18.73;12.60;;;;;;;;;;5095854;28;20205;-91
2023/01/20 02:40:25;;;;;;;19.13;13.67;;;;;;;;;;5078281;28;20202;-90
2023/01/20 02:42:58;;;;;;;24.33;16.70;;;;;;;;;;5078186;28;20203;-91
2023/01/20 02:45:32;;;;;;;24.43;18.63;;;;;;;;;;5095701;28;20197;-90
2023/01/20 02:48:03;;;;;;;29.87;20.90;;;;;;;;;;5077767;28;20204;-91
2023/01/20 02:50:37;;;;;;;37.67;27.00;;;;;;;;;;5077550;28;20252;-91
2023/01/20 02:53:06;;;;;;;46.57;28.57;;;;;;;;;;5077640;28;20233;-90
2023/01/20 02:55:37;;;;;;;49.73;31.00;;;;;;;;;;5095530;28;20286;-91
2023/01/20 02:58:07;;;;;;;52.97;34.60;;;;;;;;;;5077531;28;20216;-91
2023/01/20 03:00:38;;;;;;;36.97;21.67;;;;;;;;;;5077327;28;20225;-91
2023/01/20 03:03:09;;;;;;;53.83;34.60;;;;;;;;;;5077783;28;20247;-91
2023/01/20 03:05:40;;;;;;;47.03;30.23;;;;;;;;;;5095270;28;20300;-91
2023/01/20 03:08:10;;;;;;;61.33;41.17;;;;;;;;;;5095336;28;20205;-91
2023/01/20 03:10:40;;;;;;;62.50;42.57;;;;;;;;;;5076971;28;20444;-91
2023/01/20 03:13:12;;;;;;;69.13;45.63;;;;;;;;;;5077682;28;20208;-91
2023/01/20 03:15:48;;;;;;;61.23;37.07;;;;;;;;;;5077243;28;20297;-91
2023/01/20 03:18:17;;;;;;;65.83;45.03;;;;;;;;;;5077455;28;20296;-89
2023/01/20 03:20:46;;;;;;;60.63;35.90;;;;;;;;;;5077132;28;20231;-91
2023/01/20 03:23:14;;;;;;;35.37;20.77;;;;;;;;;;5076770;28;20197;-90
2023/01/20 03:25:44;;;;;;;68.63;44.30;;;;;;;;;;5094773;28;20259;-91
2023/01/20 03:28:13;;;;;;;40.10;25.83;;;;;;;;;;5076822;28;20226;-91
2023/01/20 03:30:42;;;;;;;70.57;43.53;;;;;;;;;;5076582;28;20225;-91
2023/01/20 03:33:11;;;;;;;67.10;44.93;;;;;;;;;;5076547;28;20208;-91
2023/01/20 03:35:41;;;;;;;61.00;37.17;;;;;;;;;;5076983;28;20201;-89
2023/01/20 03:38:09;;;;;;;53.07;31.33;;;;;;;;;;5077033;28;20201;-91
2023/01/20 03:40:41;;;;;;;60.47;34.57;;;;;;;;;;5077023;28;20206;-90
2023/01/20 03:43:13;;;;;;;75.10;48.53;;;;;;;;;;5076773;28;20255;-91
2023/01/20 03:45:42;;;;;;;58.87;36.07;;;;;;;;;;5076251;28;20241;-90
2023/01/20 03:48:13;;;;;;;41.30;23.93;;;;;;;;;;5094275;28;20188;-91
2023/01/20 03:50:46;;;;;;;62.57;39.23;;;;;;;;;;5076607;28;20198;-91
2023/01/20 03:53:19;;;;;;;64.20;36.00;;;;;;;;;;5076439;28;20201;-89
2023/01/20 03:55:50;;;;;;;53.17;29.80;;;;;;;;;;5094553;28;20282;-90
2023/01/20 03:58:21;;;;;;;11.77;8.13;;;;;;;;;;5094359;28;20201;-90
2023/01/20 04:00:51;;;;;;;2.33;2.27;;;;;;;;;;5076034;28;20209;-90
2023/01/20 04:03:20;;;;;;;10.23;6.53;;;;;;;;;;5076227;28;20248;-91
2023/01/20 04:05:50;;;;;;;3.20;3.00;;;;;;;;;;5076421;28;20313;-91
2023/01/20 04:08:21;;;;;;;12.67;8.23;;;;;;;;;;5094232;28;20209;-91
2023/01/20 04:10:51;;;;;;;36.50;24.63;;;;;;;;;;5076406;28;20197;-90
2023/01/20 04:13:19;;;;;;;40.00;24.50;;;;;;;;;;5076099;28;20202;-91
2023/01/20 04:15:48;;;;;;;33.43;19.00;;;;;;;;;;5076196;28;20331;-90
2023/01/20 04:18:17;;;;;;;26.13;18.53;;;;;;;;;;5094336;28;20198;-91
2023/01/20 04:20:47;;;;;;;36.97;24.60;;;;;;;;;;5094367;28;20219;-90
2023/01/20 04:23:21;;;;;;;35.70;22.37;;;;;;;;;;5076329;28;20261;-90
2023/01/20 04:25:49;;;;;;;42.13;22.80;;;;;;;;;;5076261;28;20219;-91
2023/01/20 04:28:18;;;;;;;23.43;15.33;;;;;;;;;;5076088;28;20225;-91
2023/01/20 04:30:46;;;;;;;34.33;25.03;;;;;;;;;;5076030;28;20192;-90
2023/01/20 04:33:15;;;;;;;38.53;25.50;;;;;;;;;;5075744;28;20216;-91
2023/01/20 04:35:43;;;;;;;24.47;15.50;;;;;;;;;;5076203;28;20216;-91
2023/01/20 04:38:11;;;;;;;33.50;24.23;;;;;;;;;;5075971;28;20190;-90
2023/01/20 04:40:41;;;;;;;30.40;19.83;;;;;;;;;;5093817;28;20233;-90
2023/01/20 04:43:10;;;;;;;27.63;20.20;;;;;;;;;;5075877;28;20208;-90
2023/01/20 04:45:41;;;;;;;20.63;12.83;;;;;;;;;;5093889;28;20198;-90
2023/01/20 04:48:10;;;;;;;19.37;13.90;;;;;;;;;;5076065;28;20213;-90
2023/01/20 04:50:39;;;;;;;22.83;16.77;;;;;;;;;;5075799;28;20222;-91
2023/01/20 04:53:07;;;;;;;21.13;13.23;;;;;;;;;;5075353;28;20217;-90
2023/01/20 04:55:36;;;;;;;18.73;11.97;;;;;;;;;;5093571;28;20199;-90
2023/01/20 04:58:05;;;;;;;17.03;9.50;;;;;;;;;;5075577;28;20235;-91
2023/01/20 05:00:34;;;;;;;12.27;7.47;;;;;;;;;;5075539;28;20297;-91
2023/01/20 05:03:02;;;;;;;17.53;12.03;;;;;;;;;;5093405;28;20302;-89
2023/01/20 05:05:30;;;;;;;22.73;13.17;;;;;;;;;;5075560;28;20250;-91
2023/01/20 05:07:59;;;;;;;21.83;12.27;;;;;;;;;;5075901;28;20197;-90
2023/01/20 05:10:27;;;;;;;12.47;9.30;;;;;;;;;;5075539;28;20203;-90
2023/01/20 05:12:55;;;;;;;19.93;11.70;;;;;;;;;;5077643;28;20251;-90
2023/01/20 05:15:25;;;;;;;15.03;9.33;;;;;;;;;;5096984;28;20239;-91
2023/01/20 05:17:54;;;;;;;25.23;15.73;;;;;;;;;;5097511;28;20226;-91
2023/01/20 05:20:22;;;;;;;24.13;16.03;;;;;;;;;;5079634;28;20206;-91
2023/01/20 05:22:50;;;;;;;26.97;17.73;;;;;;;;;;5079069;28;20230;-91
2023/01/20 05:25:19;;;;;;;27.90;17.70;;;;;;;;;;5079182;28;20205;-90
2023/01/20 05:27:47;;;;;;;28.57;18.30;;;;;;;;;;5096918;28;20200;-90
2023/01/20 05:30:16;;;;;;;25.00;16.67;;;;;;;;;;5097393;28;20202;-91
2023/01/20 05:32:46;;;;;;;24.03;16.53;;;;;;;;;;5078954;28;20209;-91
2023/01/20 05:35:15;;;;;;;30.13;17.67;;;;;;;;;;5079259;28;20194;-90
2023/01/20 05:37:44;;;;;;;22.67;14.23;;;;;;;;;;5079102;28;20198;-91
2023/01/20 05:40:13;;;;;;;34.30;20.77;;;;;;;;;;5097205;28;20254;-91
2023/01/20 05:42:42;;;;;;;11.60;7.73;;;;;;;;;;5079112;28;20203;-91
2023/01/20 05:45:10;;;;;;;23.30;12.30;;;;;;;;;;5078884;28;20198;-91
2023/01/20 05:47:39;;;;;;;22.97;14.83;;;;;;;;;;5097091;28;20204;-90
2023/01/20 05:50:09;;;;;;;36.53;23.70;;;;;;;;;;5079155;28;20283;-91
2023/01/20 05:52:37;;;;;;;33.43;25.37;;;;;;;;;;5078898;28;20212;-89
2023/01/20 05:55:06;;;;;;;37.17;27.03;;;;;;;;;;5078560;28;20195;-91
2023/01/20 05:57:34;;;;;;;35.23;24.77;;;;;;;;;;5078718;28;20197;-91
2023/01/20 06:00:03;;;;;;;34.60;24.37;;;;;;;;;;5078906;28;20250;-91
2023/01/20 06:02:31;;;;;;;33.53;23.43;;;;;;;;;;5097150;28;20256;-89
2023/01/20 06:05:00;;;;;;;34.93;22.27;;;;;;;;;;5097976;28;20197;-90
2023/01/20 06:07:30;;;;;;;30.90;17.73;;;;;;;;;;5098527;28;20228;-89
2023/01/20 06:09:59;;;;;;;40.43;29.47;;;;;;;;;;5080275;28;20230;-90
2023/01/20 06:12:27;;;;;;;25.07;19.13;;;;;;;;;;5097770;28;20205;-90
2023/01/20 06:14:55;;;;;;;41.67;28.50;;;;;;;;;;5079365;28;20261;-88
2023/01/20 06:17:24;;;;;;;34.63;23.23;;;;;;;;;;5097071;28;20240;-90
2023/01/20 06:19:52;;;;;;;30.43;20.77;;;;;;;;;;5096761;28;20190;-90
2023/01/20 06:22:20;;;;;;;48.43;33.27;;;;;;;;;;5078653;28;20225;-91
2023/01/20 06:24:50;;;;;;;33.40;25.87;;;;;;;;;;5096633;28;20251;-89
2023/01/20 06:27:19;;;;;;;21.40;12.27;;;;;;;;;;5096503;28;20221;-89
2023/01/20 06:29:49;;;;;;;41.57;24.80;;;;;;;;;;5078735;28;20267;-89
2023/01/20 06:32:18;;;;;;;38.37;26.90;;;;;;;;;;5077377;28;20202;-88
2023/01/20 06:34:46;;;;;;;38.63;31.07;;;;;;;;;;5077760;28;20248;-90
2023/01/20 06:37:14;;;;;;;46.60;35.07;;;;;;;;;;5077867;28;20260;-89
2023/01/20 06:39:43;;;;;;;44.47;30.80;;;;;;;;;;5077397;28;20235;-90
2023/01/20 06:42:12;;;;;;;51.83;30.10;;;;;;;;;;5077731;28;20210;-88
2023/01/20 06:44:41;;;;;;;49.67;32.17;;;;;;;;;;5077317;28;20230;-88
2023/01/20 06:47:09;;;;;;;51.83;37.73;;;;;;;;;;5077647;28;20269;-89
2023/01/20 06:49:37;;;;;;;54.00;38.90;;;;;;;;;;5095323;28;20194;-89
2023/01/20 06:52:07;;;;;;;55.93;40.53;;;;;;;;;;5077476;28;20232;-89
2023/01/20 06:54:35;;;;;;;60.60;43.87;;;;;;;;;;5077378;28;20578;-89
2023/01/20 06:57:03;;;;;;;57.17;37.93;;;;;;;;;;5077331;28;20197;-89
2023/01/20 06:59:33;;;;;;;42.27;27.17;;;;;;;;;;5095047;28;20240;-89
2023/01/20 07:02:01;;;;;;;53.53;36.30;;;;;;;;;;5077032;28;20209;-89
2023/01/20 07:04:30;;;;;;;49.60;29.33;;;;;;;;;;5095147;28;20194;-90
2023/01/20 07:06:58;;;;;;;35.40;25.27;;;;;;;;;;5076827;28;20258;-90
2023/01/20 07:09:27;;;;;;;55.67;33.37;;;;;;;;;;5076834;28;20221;-89
2023/01/20 07:11:57;;;;;;;68.00;43.27;;;;;;;;;;5094873;28;20198;-88
2023/01/20 07:14:26;;;;;;;45.53;28.57;;;;;;;;;;5094705;28;20263;-89
2023/01/20 07:16:55;;;;;;;67.17;47.07;;;;;;;;;;5076863;28;20230;-90
2023/01/20 07:19:24;;;;;;;63.53;41.07;;;;;;;;;;5076569;28;20230;-89
2023/01/20 07:21:52;;;;;;;69.17;41.93;;;;;;;;;;5076810;28;20207;-90
2023/01/20 07:24:20;;;;;;;60.03;39.43;;;;;;;;;;5076619;28;20193;-89
2023/01/20 07:26:49;;;;;;;69.00;40.23;;;;;;;;;;5094816;28;20192;-88
2023/01/20 07:29:17;;;;;;;66.13;37.57;;;;;;;;;;5095175;28;20225;-90
2023/01/20 07:31:45;;;;;;;68.87;44.43;;;;;;;;;;5076844;28;20252;-90
2023/01/20 07:34:15;;;;;;;52.47;32.93;;;;;;;;;;5094107;28;20223;-90
2023/01/20 07:36:43;;;;;;;67.60;43.73;;;;;;;;;;5094287;28;20195;-90
2023/01/20 07:39:13;;;;;;;54.90;35.57;;;;;;;;;;5076635;28;20201;-90
2023/01/20 07:41:42;;;;;;;70.40;41.37;;;;;;;;;;5076414;28;20215;-90
2023/01/20 07:44:11;;;;;;;54.93;28.07;;;;;;;;;;5076536;28;20197;-90
2023/01/20 07:46:39;;;;;;;61.20;41.87;;;;;;;;;;5076014;28;20222;-89
2023/01/20 07:49:07;;;;;;;59.07;44.57;;;;;;;;;;5094178;28;20217;-89
2023/01/20 07:51:42;;;;;;;52.57;31.63;;;;;;;;;;5076156;28;20198;-89
2023/01/20 07:54:10;;;;;;;51.23;34.57;;;;;;;;;;5076233;28;20270;-88
2023/01/20 07:56:39;;;;;;;46.87;30.23;;;;;;;;;;5078088;28;20252;-89
2023/01/20 07:59:07;;;;;;;55.03;37.30;;;;;;;;;;5076978;28;20203;-89
2023/01/20 08:01:36;;;;;;;58.27;38.37;;;;;;;;;;5093847;28;20199;-88
2023/01/20 08:04:04;;;;;;;55.73;40.47;;;;;;;;;;5076388;28;20205;-88
2023/01/20 08:06:32;;;;;;;54.80;32.60;;;;;;;;;;5076132;28;20223;-88
2023/01/20 08:09:03;;;;;;;36.67;23.73;;;;;;;;;;5076078;28;20198;-88
2023/01/20 08:11:32;;;;;;;52.87;35.23;;;;;;;;;;5075985;28;20289;-88
2023/01/20 08:14:00;;;;;;;48.23;31.70;;;;;;;;;;5075603;28;20239;-88
2023/01/20 08:16:28;;;;;;;55.57;34.37;;;;;;;;;;5075960;28;20251;-88
2023/01/20 08:18:57;;;;;;;50.90;32.77;;;;;;;;;;5076010;28;20288;-89
2023/01/20 08:21:26;;;;;;;18.63;13.57;;;;;;;;;;5075587;28;20259;-88
2023/01/20 08:23:55;;;;;;;31.07;15.63;;;;;;;;;;5075827;28;20225;-88
2023/01/20 08:26:26;;;;;;;40.00;23.93;;;;;;;;;;5093672;28;20276;-88
2023/01/20 08:28:55;;;;;;;34.97;18.60;;;;;;;;;;5075807;28;20205;-88
2023/01/20 08:31:24;;;;;;;15.67;6.30;;;;;;;;;;5076322;28;20202;-87
2023/01/20 08:33:53;;;;;;;28.33;18.20;;;;;;;;;;5077665;28;20251;-87
2023/01/20 08:36:22;;;;;;;14.17;9.17;;;;;;;;;;5077827;28;20195;-87
2023/01/20 08:38:51;;;;;;;22.67;14.30;;;;;;;;;;5077441;28;20206;-87
2023/01/20 08:41:21;;;;;;;13.97;8.43;;;;;;;;;;5077705;28;20228;-88
2023/01/20 08:43:51;;;;;;;4.07;3.77;;;;;;;;;;5076483;28;20210;-87
2023/01/20 08:46:20;;;;;;;4.77;4.37;;;;;;;;;;5070517;28;20209;-87
2023/01/20 08:48:49;;;;;;;2.97;2.80;;;;;;;;;;5063999;28;20212;-86
2023/01/20 08:51:19;;;;;;;11.13;8.53;;;;;;;;;;5097195;28;20277;-87
2023/01/20 08:53:47;;;;;;;19.57;10.23;;;;;;;;;;5076372;28;20217;-86
2023/01/20 08:56:16;;;;;;;10.87;8.17;;;;;;;;;;5095414;28;20276;-84
2023/01/20 08:58:44;;;;;;;6.97;6.03;;;;;;;;;;5078339;28;20297;-84
2023/01/20 09:01:15;;;;;;;9.93;8.43;;;;;;;;;;5083437;28;20203;-83
2023/01/20 09:03:44;;;;;;;10.53;7.40;;;;;;;;;;5079827;28;20206;-84
2023/01/20 09:06:31;;;;;;;5.43;4.93;;;;;;;;;;5096131;28;20219;-84
2023/01/20 09:09:00;;;;;;;0.97;0.97;;;;;;;;;;5078053;28;20207;-85
2023/01/20 09:11:31;;;;;;;8.37;7.30;;;;;;;;;;5097936;28;20204;-85
2023/01/20 09:14:00;;;;;;;1.33;1.33;;;;;;;;;;5091785;28;20217;-85
2023/01/20 09:16:30;;;;;;;13.83;5.97;;;;;;;;;;5079410;28;20240;-86
2023/01/20 09:19:02;;;;;;;12.80;7.53;;;;;;;;;;5074808;28;20207;-87
2023/01/20 09:21:30;;;;;;;6.50;4.17;;;;;;;;;;5086865;28;20225;-86
2023/01/20 09:23:59;;;;;;;17.93;9.53;;;;;;;;;;5098839;28;20195;-86
2023/01/20 09:26:27;;;;;;;7.73;5.27;;;;;;;;;;5078264;28;20200;-86
2023/01/20 09:29:07;;;;;;;7.67;6.37;;;;;;;;;;5096164;28;20210;-85
2023/01/20 09:31:38;;;;;;;20.90;14.43;;;;;;;;;;5074497;28;20211;-85
2023/01/20 09:34:07;;;;;;;26.83;15.03;;;;;;;;;;5099635;28;20222;-85
2023/01/20 09:36:35;;;;;;;7.63;6.63;;;;;;;;;;5097161;28;20214;-85
2023/01/20 09:44:49;;;;;;;26.27;16.20;;;;;;;;;;5069393;28;20204;-85
2023/01/20 09:47:28;;;;;;;27.97;18.73;;;;;;;;;;5097815;28;20287;-86
2023/01/20 09:53:06;;;;;;;5.27;4.50;;;;;;;;;;5089108;28;20209;-85
2023/01/20 09:55:40;;;;;;;11.90;9.67;;;;;;;;;;5086403;28;20791;-86
2023/01/20 09:58:12;;;;;;;6.60;6.00;;;;;;;;;;5098220;28;20238;-85
2023/01/20 10:00:47;;;;;;;3.97;3.20;;;;;;;;;;5077885;28;20289;-86
2023/01/20 10:03:18;;;;;;;26.67;18.13;;;;;;;;;;5082771;28;20291;-85
2023/01/20 10:05:49;;;;;;;21.93;14.27;;;;;;;;;;5089060;28;20278;-86
2023/01/20 10:08:20;;;;;;;4.57;4.10;;;;;;;;;;5086188;28;20203;-85
2023/01/20 10:10:50;;;;;;;5.33;4.70;;;;;;;;;;5087575;28;20280;-85
2023/01/20 10:13:20;;;;;;;12.63;9.13;;;;;;;;;;5080734;28;20195;-84
2023/01/20 10:15:51;;;;;;;9.10;6.53;;;;;;;;;;5081257;28;20224;-86
2023/01/20 10:18:25;;;;;;;3.97;3.57;;;;;;;;;;5095149;28;20205;-86
2023/01/20 10:20:56;;;;;;;5.63;4.10;;;;;;;;;;5074514;28;20204;-86
2023/01/20 10:23:28;;;;;;;22.37;15.80;;;;;;;;;;5076765;28;20239;-85
2023/01/20 10:26:00;;;;;;;14.90;10.97;;;;;;;;;;5075160;28;20201;-85
2023/01/20 10:28:29;;;;;;;20.60;14.27;;;;;;;;;;5078771;28;20208;-85
2023/01/20 10:30:58;;;;;;;19.20;12.73;;;;;;;;;;5075936;28;20201;-86
2023/01/20 10:33:31;;;;;;;26.30;20.03;;;;;;;;;;5078945;28;20204;-85
2023/01/20 10:36:00;;;;;;;24.47;19.93;;;;;;;;;;5090626;28;20244;-87
2023/01/20 10:38:33;;;;;;;30.47;19.37;;;;;;;;;;5076732;28;20201;-86
2023/01/20 10:41:05;;;;;;;9.50;7.80;;;;;;;;;;5092922;28;20220;-85
2023/01/20 10:43:34;;;;;;;12.93;9.43;;;;;;;;;;5093281;28;20258;-86
2023/01/20 10:46:10;;;;;;;17.60;11.93;;;;;;;;;;5097242;28;20244;-85
2023/01/20 10:48:48;;;;;;;22.57;19.27;;;;;;;;;;5076650;28;20241;-85
2023/01/20 10:51:19;;;;;;;26.50;21.90;;;;;;;;;;5072334;28;20185;-86
2023/01/20 10:53:52;;;;;;;27.53;22.47;;;;;;;;;;5077930;28;20251;-88
2023/01/20 10:56:26;;;;;;;23.27;17.90;;;;;;;;;;5080102;28;20289;-86
2023/01/20 10:58:56;;;;;;;29.17;21.00;;;;;;;;;;5074549;28;20238;-85
2023/01/20 11:01:25;;;;;;;21.43;16.87;;;;;;;;;;5090232;28;20216;-86
2023/01/20 11:03:55;;;;;;;25.50;18.73;;;;;;;;;;5093856;28;20203;-85
2023/01/20 11:06:25;;;;;;;22.00;15.73;;;;;;;;;;5076431;28;20235;-86
2023/01/20 11:08:54;;;;;;;16.30;10.63;;;;;;;;;;5094074;28;20205;-85
2023/01/20 11:11:23;;;;;;;13.47;9.00;;;;;;;;;;5082225;28;20231;-85
2023/01/20 11:13:52;;;;;;;18.83;13.93;;;;;;;;;;5086750;28;20215;-85
2023/01/20 11:16:23;;;;;;;22.90;20.37;;;;;;;;;;5073464;28;20322;-86
2023/01/20 11:19:00;;;;;;;19.60;16.13;;;;;;;;;;5091028;28;20247;-86
2023/01/20 11:21:30;;;;;;;28.07;17.50;;;;;;;;;;5071597;28;20201;-87
2023/01/20 11:23:59;;;;;;;24.43;17.73;;;;;;;;;;5074748;28;20227;-85
2023/01/20 11:26:29;;;;;;;25.23;22.17;;;;;;;;;;5089157;28;20191;-86
2023/01/20 11:28:58;;;;;;;24.83;20.70;;;;;;;;;;5078119;28;20206;-86
2023/01/20 11:31:40;;;;;;;27.50;18.37;;;;;;;;;;5074151;28;20253;-86
2023/01/20 11:34:21;;;;;;;27.70;21.67;;;;;;;;;;5075739;28;20289;-86
2023/01/20 11:36:50;;;;;;;23.57;15.40;;;;;;;;;;5060639;28;20214;-86
2023/01/20 11:39:28;;;;;;;34.43;23.60;;;;;;;;;;5088479;28;20211;-86
2023/01/20 11:42:15;;;;;;;28.97;20.97;;;;;;;;;;5074886;28;20202;-86
2023/01/20 11:44:43;;;;;;;29.87;21.77;;;;;;;;;;5086945;28;20194;-85
2023/01/20 11:47:17;;;;;;;21.73;15.33;;;;;;;;;;5072791;28;20199;-86
2023/01/20 11:49:46;;;;;;;15.87;12.73;;;;;;;;;;5074568;28;20249;-86
2023/01/20 11:52:20;;;;;;;7.57;5.17;;;;;;;;;;5072112;28;20286;-87
2023/01/20 11:54:49;;;;;;;23.10;16.60;;;;;;;;;;5084273;28;20215;-87
2023/01/20 11:57:18;;;;;;;27.37;21.80;;;;;;;;;;5074451;28;20250;-86
2023/01/20 11:59:48;;;;;;;31.03;23.87;;;;;;;;;;5075498;28;20207;-87
2023/01/20 12:02:23;;;;;;;26.57;21.10;;;;;;;;;;5075747;28;20226;-87
2023/01/20 12:05:07;;;;;;;29.23;23.90;;;;;;;;;;5074411;28;20198;-87
2023/01/20 12:07:38;;;;;;;29.90;24.10;;;;;;;;;;5086349;28;20201;-86
2023/01/20 12:10:13;;;;;;;30.63;26.03;;;;;;;;;;5096669;28;20231;-89
2023/01/20 12:12:46;;;;;;;30.00;21.37;;;;;;;;;;5058708;28;20232;-88
2023/01/20 12:15:16;;;;;;;10.40;8.10;;;;;;;;;;5055819;28;20317;-87
2023/01/20 12:17:52;;;;;;;24.13;17.20;;;;;;;;;;5081503;28;20196;-87
2023/01/20 12:20:24;;;;;;;24.83;18.63;;;;;;;;;;5071293;28;20202;-88
2023/01/20 12:22:59;;;;;;;6.77;5.43;;;;;;;;;;5086809;28;20204;-86
2023/01/20 12:25:29;;;;;;;25.47;18.57;;;;;;;;;;5071992;28;20226;-84
2023/01/20 12:27:58;;;;;;;6.07;5.10;;;;;;;;;;5082705;28;20224;-86
2023/01/20 12:30:31;;;;;;;18.97;16.03;;;;;;;;;;5075605;28;20288;-85
2023/01/20 12:33:00;;;;;;;2.83;2.53;;;;;;;;;;5084680;28;20196;-85
2023/01/20 12:35:31;;;;;;;4.40;4.00;;;;;;;;;;5084123;28;20337;-86
2023/01/20 12:38:03;;;;;;;21.40;16.80;;;;;;;;;;5086309;28;20201;-86
2023/01/20 12:40:36;;;;;;;23.53;18.73;;;;;;;;;;5065348;28;20190;-86
2023/01/20 12:43:16;;;;;;;21.17;15.27;;;;;;;;;;5076838;28;20231;-84
2023/01/20 12:45:51;;;;;;;25.27;18.70;;;;;;;;;;5084279;28;20227;-85
2023/01/20 12:48:25;;;;;;;22.83;15.63;;;;;;;;;;5081948;28;20334;-85
2023/01/20 12:50:59;;;;;;;19.13;12.70;;;;;;;;;;5066300;28;20204;-85
2023/01/20 12:53:37;;;;;;;1.67;1.60;;;;;;;;;;5062782;28;20218;-86
2023/01/20 12:56:11;;;;;;;11.37;7.97;;;;;;;;;;5082981;28;20226;-86
2023/01/20 12:58:46;;;;;;;9.93;7.03;;;;;;;;;;5080554;28;20288;-85
2023/01/20 13:01:25;;;;;;;11.70;8.13;;;;;;;;;;5073583;28;20200;-86
2023/01/20 13:04:17;;;;;;;7.57;5.97;;;;;;;;;;5077160;28;20200;-86
2023/01/20 13:07:04;;;;;;;15.97;10.50;;;;;;;;;;5092444;28;20295;-86
2023/01/20 13:09:48;;;;;;;7.87;6.27;;;;;;;;;;5085408;28;20254;-89
2023/01/20 13:12:29;;;;;;;6.47;4.63;;;;;;;;;;5092130;28;20228;-87
2023/01/20 13:14:59;;;;;;;9.10;7.13;;;;;;;;;;5074246;28;20229;-86
2023/01/20 13:17:32;;;;;;;20.40;12.57;;;;;;;;;;5092012;28;20205;-86
2023/01/20 13:20:03;;;;;;;13.63;10.03;;;;;;;;;;5073571;28;20197;-83
2023/01/20 13:22:33;;;;;;;14.83;11.37;;;;;;;;;;5072865;28;20196;-85
2023/01/20 13:25:03;;;;;;;7.40;4.23;;;;;;;;;;5084194;28;20207;-85
2023/01/20 13:27:33;;;;;;;15.90;10.53;;;;;;;;;;5080573;28;20211;-86
2023/01/20 13:30:03;;;;;;;10.83;8.23;;;;;;;;;;5063228;28;20205;-85
2023/01/20 13:32:35;;;;;;;28.00;8.63;;;;;;;;;;5064833;28;20204;-85
2023/01/20 13:35:26;;;;;;;17.13;12.20;;;;;;;;;;5087626;28;20209;-85
2023/01/20 13:37:55;;;;;;;12.23;8.30;;;;;;;;;;5070310;28;20303;-85
2023/01/20 13:40:44;;;;;;;7.03;5.43;;;;;;;;;;5088065;28;20204;-85
2023/01/20 13:43:27;;;;;;;12.07;9.00;;;;;;;;;;5086560;28;20235;-84
2023/01/20 13:46:27;;;;;;;14.20;12.23;;;;;;;;;;5070257;28;20230;-87
2023/01/20 13:49:29;;;;;;;17.30;11.43;;;;;;;;;;5076782;28;20256;-85
2023/01/20 13:51:59;;;;;;;15.10;10.33;;;;;;;;;;4964773;28;20208;-84
2023/01/20 13:54:46;;;;;;;8.07;6.27;;;;;;;;;;4962603;28;20208;-84
2023/01/20 13:57:45;;;;;;;19.90;13.63;;;;;;;;;;5042233;28;20307;-84
2023/01/20 14:00:17;;;;;;;15.93;12.73;;;;;;;;;;5075010;28;20225;-83
2023/01/20 14:02:46;;;;;;;8.70;6.40;;;;;;;;;;5084843;28;20204;-84
2023/01/20 14:05:23;;;;;;;15.77;9.73;;;;;;;;;;5085102;28;20271;-83
2023/01/20 14:07:53;;;;;;;13.43;8.13;;;;;;;;;;5084132;28;20288;-89
2023/01/20 14:10:21;;;;;;;13.90;8.13;;;;;;;;;;5077577;28;20254;-82
2023/01/20 14:12:50;;;;;;;14.87;10.67;;;;;;;;;;5064289;28;20208;-83
2023/01/20 14:15:39;;;;;;;13.80;9.90;;;;;;;;;;5081216;28;20268;-83
2023/01/20 14:18:16;;;;;;;14.70;11.43;;;;;;;;;;5059991;28;20312;-83
2023/01/20 14:20:56;;;;;;;12.03;9.00;;;;;;;;;;5063588;28;20208;-83
2023/01/20 14:23:33;;;;;;;15.30;11.20;;;;;;;;;;5083756;28;20304;-83
2023/01/20 14:26:10;;;;;;;14.63;8.43;;;;;;;;;;5063855;28;20200;-88
2023/01/20 14:28:44;;;;;;;11.70;8.23;;;;;;;;;;5070341;28;20200;-87
2023/01/20 14:31:13;;;;;;;12.27;7.63;;;;;;;;;;5062418;28;20426;-87
2023/01/20 14:33:46;;;;;;;12.90;9.20;;;;;;;;;;5081172;28;20220;-88
2023/01/20 14:36:18;;;;;;;10.70;8.27;;;;;;;;;;5064625;28;20205;-88
2023/01/20 14:38:52;;;;;;;10.53;8.20;;;;;;;;;;5064399;28;20221;-88
2023/01/20 14:41:43;;;;;;;13.83;8.17;;;;;;;;;;5063747;28;20255;-89
2023/01/20 14:44:16;;;;;;;12.53;9.57;;;;;;;;;;5069228;28;20230;-87
2023/01/20 14:46:45;;;;;;;14.80;11.17;;;;;;;;;;5083216;28;20303;-88
2023/01/20 14:49:15;;;;;;;10.37;9.27;;;;;;;;;;5072106;28;20204;-87
2023/01/20 14:51:43;;;;;;;15.83;11.83;;;;;;;;;;5076150;28;20197;-87
2023/01/20 14:54:30;;;;;;;16.40;11.00;;;;;;;;;;5077823;28;20202;-88